createdAt,value
2022-10-01T00:02:17.476Z,100323.59
2022-10-01T00:04:47.146Z,100319.56
2022-10-01T00:07:16.662Z,100323.75
2022-10-01T00:09:45.897Z,100319.69
2022-10-01T00:12:16.720Z,100315.59
2022-10-01T00:14:45.984Z,100322.97
2022-10-01T00:17:15.291Z,100333.63
2022-10-01T00:19:44.529Z,100324.81
2022-10-01T00:22:13.755Z,100326.63
2022-10-01T00:24:42.993Z,100315.78
2022-10-01T00:27:12.602Z,100306.50
2022-10-01T00:29:44.300Z,100308.09
2022-10-01T00:32:14.431Z,100296.06
2022-10-01T00:34:43.747Z,100299.25
2022-10-01T00:37:13.088Z,100282.41
2022-10-01T00:39:42.456Z,100259.59
2022-10-01T00:42:25.174Z,100270.88
2022-10-01T00:44:54.835Z,100276.09
2022-10-01T00:47:30.384Z,100263.41
2022-10-01T00:50:07.103Z,100270.28
2022-10-01T00:52:40.664Z,100257.41
2022-10-01T00:55:14.742Z,100271.91
2022-10-01T00:57:46.538Z,100253.31
2022-10-01T01:00:16.509Z,100249.84
2022-10-01T01:02:45.974Z,100236.50
2022-10-01T01:05:16.102Z,100233.66
2022-10-01T01:07:49.097Z,100245.97
2022-10-01T01:10:22.264Z,100253.31
2022-10-01T01:13:20.027Z,100259.66
2022-10-01T01:16:07.498Z,100257.66
2022-10-01T01:18:57.093Z,100254.81
2022-10-01T01:21:35.472Z,100245.50
2022-10-01T01:24:24.776Z,100250.03
2022-10-01T01:27:26.221Z,100230.72
2022-10-01T01:30:08.461Z,100226.13
2022-10-01T01:32:46.482Z,100229.63
2022-10-01T01:35:27.070Z,100198.25
2022-10-01T01:38:01.823Z,100199.16
2022-10-01T01:40:34.482Z,100191.47
2022-10-01T01:43:07.867Z,100181.38
2022-10-01T01:45:40.550Z,100184.03
2022-10-01T01:48:13.064Z,100185.47
2022-10-01T01:50:51.818Z,100106.31
2022-10-01T01:53:22.039Z,100058.41
2022-10-01T01:55:52.273Z,100070.00
2022-10-01T01:58:24.215Z,100051.16
2022-10-01T02:00:54.986Z,100039.84
2022-10-01T02:03:31.869Z,100044.84
2022-10-01T02:06:28.882Z,100050.50
2022-10-01T02:09:11.423Z,100077.81
2022-10-01T02:11:53.304Z,100091.63
2022-10-01T02:14:50.731Z,100096.66
2022-10-01T02:17:28.111Z,100131.03
2022-10-01T02:20:29.156Z,100117.72
2022-10-01T02:23:07.127Z,100104.84
2022-10-01T02:25:42.661Z,100097.13
2022-10-01T02:28:19.257Z,100083.34
2022-10-01T02:30:50.382Z,100105.47
2022-10-01T02:33:24.723Z,100097.19
2022-10-01T02:35:56.345Z,100075.38
2022-10-01T02:38:27.607Z,100062.38
2022-10-01T02:41:01.527Z,100073.34
2022-10-01T02:43:42.753Z,100071.09
2022-10-01T02:46:30.583Z,100073.63
2022-10-01T02:49:01.286Z,100065.38
2022-10-01T02:51:39.379Z,100048.63
2022-10-01T02:54:16.742Z,100038.25
2022-10-01T02:56:58.709Z,100022.56
2022-10-01T02:59:28.015Z,100031.66
2022-10-01T03:02:00.264Z,100018.66
2022-10-01T03:04:32.092Z,100026.66
2022-10-01T03:07:03.996Z,100017.84
2022-10-01T03:09:34.550Z,100026.66
2022-10-01T03:12:04.200Z,100017.41
2022-10-01T03:14:34.105Z,100015.97
2022-10-01T03:17:03.570Z,100021.00
2022-10-01T03:19:32.871Z,100020.09
2022-10-01T03:22:04.925Z,100023.41
2022-10-01T03:24:34.396Z,100013.22
2022-10-01T03:27:03.794Z,100003.16
2022-10-01T03:29:33.266Z,100026.72
2022-10-01T03:32:03.194Z,100031.47
2022-10-01T03:34:35.592Z,100018.41
2022-10-01T03:37:04.941Z,100027.69
2022-10-01T03:39:36.080Z,100019.22
2022-10-01T03:42:06.462Z,100009.78
2022-10-01T03:44:36.444Z,100014.53
2022-10-01T03:47:05.794Z,100012.63
2022-10-01T03:49:35.539Z,100017.66
2022-10-01T03:52:06.598Z,100013.44
2022-10-01T03:54:36.355Z,99999.00
2022-10-01T03:57:06.072Z,100002.94
2022-10-01T03:59:36.196Z,100019.63
2022-10-01T04:02:05.630Z,100006.09
2022-10-01T04:04:35.081Z,100001.50
2022-10-01T04:07:04.447Z,100004.22
2022-10-01T04:09:33.738Z,100014.94
2022-10-01T04:12:03.412Z,100019.34
2022-10-01T04:14:32.712Z,100013.69
2022-10-01T04:17:04.863Z,100014.81
2022-10-01T04:19:34.162Z,100018.06
2022-10-01T04:22:03.486Z,100028.81
2022-10-01T04:24:32.763Z,100021.88
2022-10-01T04:27:02.994Z,100022.84
2022-10-01T04:29:39.437Z,100021.09
2022-10-01T04:32:09.556Z,100029.13
2022-10-01T04:34:54.049Z,100032.28
2022-10-01T04:37:24.555Z,100021.44
2022-10-01T04:39:54.302Z,100025.06
2022-10-01T04:42:24.635Z,100030.56
2022-10-01T04:44:53.903Z,100028.06
2022-10-01T04:47:23.175Z,100023.81
2022-10-01T04:49:52.477Z,100027.44
2022-10-01T04:52:21.768Z,100027.75
2022-10-01T04:54:52.343Z,100024.47
2022-10-01T04:57:22.568Z,100037.81
2022-10-01T04:59:51.993Z,100046.19
2022-10-01T05:02:21.399Z,100037.38
2022-10-01T05:04:50.704Z,100037.38
2022-10-01T05:07:19.980Z,100039.13
2022-10-01T05:09:49.259Z,100047.13
2022-10-01T05:12:23.687Z,100051.88
2022-10-01T05:14:57.615Z,100048.72
2022-10-01T05:17:27.074Z,100045.59
2022-10-01T05:19:56.380Z,100060.38
2022-10-01T05:22:25.643Z,100060.50
2022-10-01T05:24:54.953Z,100060.50
2022-10-01T05:27:24.253Z,100070.13
2022-10-01T05:29:53.560Z,100049.03
2022-10-01T05:32:22.861Z,100079.41
2022-10-01T05:34:53.753Z,100076.09
2022-10-01T05:37:23.521Z,100083.16
2022-10-01T05:39:52.815Z,100092.94
2022-10-01T05:42:22.093Z,100098.44
2022-10-01T05:44:51.373Z,100094.50
2022-10-01T05:47:21.593Z,100105.72
2022-10-01T05:49:50.901Z,100098.44
2022-10-01T05:52:20.241Z,100096.75
2022-10-01T05:54:49.489Z,100097.97
2022-10-01T05:57:18.741Z,100101.47
2022-10-01T05:59:48.012Z,100109.16
2022-10-01T06:02:17.437Z,100100.81
2022-10-01T06:04:46.804Z,100111.25
2022-10-01T06:07:16.160Z,100111.69
2022-10-01T06:09:45.451Z,100114.22
2022-10-01T06:12:19.572Z,100119.25
2022-10-01T06:14:49.122Z,100117.22
2022-10-01T06:17:18.410Z,100118.16
2022-10-01T06:19:47.703Z,100120.50
2022-10-01T06:22:16.962Z,100124.44
2022-10-01T06:24:46.581Z,100122.28
2022-10-01T06:27:15.995Z,100133.16
2022-10-01T06:29:45.308Z,100135.66
2022-10-01T06:32:19.770Z,100128.88
2022-10-01T06:34:49.124Z,100129.84
2022-10-01T06:37:18.511Z,100142.44
2022-10-01T06:39:48.220Z,100143.38
2022-10-01T06:42:17.482Z,100141.31
2022-10-01T06:44:47.104Z,100140.22
2022-10-01T06:47:16.382Z,100158.16
2022-10-01T06:49:47.655Z,100156.44
2022-10-01T06:52:30.109Z,100155.81
2022-10-01T06:55:01.781Z,100151.38
2022-10-01T06:57:34.114Z,100152.63
2022-10-01T07:00:03.501Z,100157.03
2022-10-01T07:02:33.013Z,100147.56
2022-10-01T07:05:02.743Z,100144.44
2022-10-01T07:07:37.236Z,100162.38
2022-10-01T07:10:11.996Z,100154.44
2022-10-01T07:12:41.716Z,100156.66
2022-10-01T07:15:12.144Z,100155.88
2022-10-01T07:17:49.842Z,100168.31
2022-10-01T07:20:20.943Z,100168.28
2022-10-01T07:22:51.858Z,100167.63
2022-10-01T07:25:21.128Z,100175.16
2022-10-01T07:27:50.441Z,100156.91
2022-10-01T07:30:19.747Z,100172.00
2022-10-01T07:32:48.983Z,100178.66
2022-10-01T07:35:20.043Z,100172.00
2022-10-01T07:37:55.387Z,100174.00
2022-10-01T07:40:27.162Z,100188.22
2022-10-01T07:42:58.901Z,100196.59
2022-10-01T07:45:28.731Z,100204.31
2022-10-01T07:47:59.988Z,100192.03
2022-10-01T07:50:31.029Z,100204.81
2022-10-01T07:53:02.139Z,100201.44
2022-10-01T07:55:32.905Z,100203.91
2022-10-01T07:58:02.805Z,100198.84
2022-10-01T08:00:35.221Z,100217.69
2022-10-01T08:03:04.433Z,100211.59
2022-10-01T08:05:36.464Z,100220.88
2022-10-01T08:08:09.446Z,100219.78
2022-10-01T08:10:41.368Z,100234.53
2022-10-01T08:13:24.798Z,100248.28
2022-10-01T08:15:55.063Z,100243.06
2022-10-01T08:18:26.174Z,100241.88
2022-10-01T08:20:55.475Z,100242.84
2022-10-01T08:23:24.943Z,100240.97
2022-10-01T08:25:54.207Z,100245.09
2022-10-01T08:28:23.467Z,100242.94
2022-10-01T08:30:52.797Z,100231.00
2022-10-01T08:33:22.254Z,100256.53
2022-10-01T08:35:52.037Z,100249.59
2022-10-01T08:38:22.264Z,100259.69
2022-10-01T08:40:54.194Z,100253.31
2022-10-01T08:43:42.771Z,100263.34
2022-10-01T08:46:22.091Z,100253.19
2022-10-01T08:48:57.630Z,100263.16
2022-10-01T08:51:42.700Z,100274.66
2022-10-01T08:54:39.823Z,100269.66
2022-10-01T08:57:16.599Z,100287.06
2022-10-01T08:59:48.775Z,100286.69
2022-10-01T09:02:25.338Z,100285.88
2022-10-01T09:05:02.913Z,100279.38
2022-10-01T09:07:44.380Z,100281.94
2022-10-01T09:10:42.237Z,100284.13
2022-10-01T09:13:30.122Z,100286.41
2022-10-01T09:16:03.650Z,100286.31
2022-10-01T09:18:54.464Z,100292.78
2022-10-01T09:21:52.707Z,100294.06
2022-10-01T09:24:47.217Z,100300.06
2022-10-01T09:27:18.130Z,100305.19
2022-10-01T09:29:54.261Z,100311.91
2022-10-01T09:32:29.603Z,100295.28
2022-10-01T09:35:04.455Z,100306.63
2022-10-01T09:37:48.463Z,100307.38
2022-10-01T09:40:30.336Z,100308.72
2022-10-01T09:43:00.780Z,100306.09
2022-10-01T09:45:30.221Z,100307.03
2022-10-01T09:48:05.925Z,100315.91
2022-10-01T09:50:44.839Z,100312.16
2022-10-01T09:53:20.116Z,100320.13
2022-10-01T09:55:55.968Z,100321.25
2022-10-01T09:58:29.118Z,100331.25
2022-10-01T10:01:00.129Z,100326.50
2022-10-01T10:03:34.413Z,100323.94
2022-10-01T10:06:04.530Z,100339.38
2022-10-01T10:08:39.591Z,100336.56
2022-10-01T10:11:12.503Z,100333.75
2022-10-01T10:13:54.099Z,100355.94
2022-10-01T10:16:27.699Z,100355.22
2022-10-01T10:19:19.766Z,100355.59
2022-10-01T10:21:55.018Z,100353.00
2022-10-01T10:24:29.172Z,100345.47
2022-10-01T10:27:02.780Z,100359.78
2022-10-01T10:29:41.166Z,100373.31
2022-10-01T10:32:22.723Z,100362.09
2022-10-01T10:34:53.203Z,100373.25
2022-10-01T10:37:28.683Z,100372.00
2022-10-01T10:39:59.285Z,100370.53
2022-10-01T10:42:28.994Z,100377.66
2022-10-01T10:45:04.433Z,100390.72
2022-10-01T10:47:33.773Z,100388.22
2022-10-01T10:50:07.308Z,100391.00
2022-10-01T10:52:44.945Z,100397.91
2022-10-01T10:55:34.043Z,100398.50
2022-10-01T10:58:14.493Z,100400.19
2022-10-01T11:00:51.311Z,100413.69
2022-10-01T11:03:27.184Z,100403.13
2022-10-01T11:05:57.412Z,100410.00
2022-10-01T11:08:29.018Z,100397.50
2022-10-01T11:11:09.439Z,100399.19
2022-10-01T11:13:42.316Z,100401.72
2022-10-01T11:16:30.195Z,100403.31
2022-10-01T11:19:36.680Z,100411.00
2022-10-01T11:22:32.153Z,100426.28
2022-10-01T11:25:27.150Z,100405.50
2022-10-01T11:28:14.391Z,100419.00
2022-10-01T11:31:19.287Z,100431.47
2022-10-01T11:34:16.698Z,100437.19
2022-10-01T11:37:11.961Z,100453.09
2022-10-01T11:39:44.892Z,100441.84
2022-10-01T11:42:22.150Z,100456.84
2022-10-01T11:45:00.506Z,100448.25
2022-10-01T11:47:44.264Z,100449.66
2022-10-01T11:50:25.260Z,100472.06
2022-10-01T11:53:00.650Z,100461.31
2022-10-01T11:55:48.787Z,100471.53
2022-10-01T11:58:39.513Z,100477.06
2022-10-01T12:01:50.471Z,100472.13
2022-10-01T12:04:35.706Z,100483.50
2022-10-01T12:07:30.646Z,100477.59
2022-10-01T12:10:19.170Z,100493.28
2022-10-01T12:12:54.430Z,100498.66
2022-10-01T12:15:29.620Z,100494.75
2022-10-01T12:18:16.840Z,100496.66
2022-10-01T12:20:51.412Z,100503.81
2022-10-01T12:23:25.456Z,100519.38
2022-10-01T12:26:14.975Z,100519.44
2022-10-01T12:29:00.001Z,100522.03
2022-10-01T12:31:36.290Z,100551.50
2022-10-01T12:34:14.601Z,100556.78
2022-10-01T12:37:10.357Z,100543.78
2022-10-01T12:40:09.097Z,100543.81
2022-10-01T12:43:04.515Z,100545.38
2022-10-01T12:45:51.856Z,100551.84
2022-10-01T12:48:39.046Z,100574.81
2022-10-01T12:51:18.435Z,100556.41
2022-10-01T12:54:03.794Z,100559.25
2022-10-01T12:56:47.130Z,100565.25
2022-10-01T12:59:59.329Z,100557.94
2022-10-01T13:02:53.353Z,100562.75
2022-10-01T13:05:45.631Z,100568.38
2022-10-01T13:08:20.680Z,100584.84
2022-10-01T13:11:20.821Z,100569.34
2022-10-01T13:13:55.067Z,100576.78
2022-10-01T13:16:44.612Z,100579.16
2022-10-01T13:19:26.660Z,100584.06
2022-10-01T13:22:21.405Z,100583.72
2022-10-01T13:25:00.931Z,100585.34
2022-10-01T13:27:47.016Z,100589.91
2022-10-01T13:30:29.620Z,100607.88
2022-10-01T13:33:01.694Z,100611.25
2022-10-01T13:35:39.274Z,100616.25
2022-10-01T13:38:48.079Z,100622.16
2022-10-01T13:41:23.497Z,100624.22
2022-10-01T13:43:59.854Z,100627.09
2022-10-01T13:46:34.586Z,100633.44
2022-10-01T13:49:22.508Z,100630.16
2022-10-01T13:51:52.598Z,100643.19
2022-10-01T13:54:35.483Z,100644.81
2022-10-01T13:57:30.820Z,100648.13
2022-10-01T14:00:19.791Z,100661.72
2022-10-01T14:03:04.323Z,100660.84
2022-10-01T14:05:45.936Z,100664.28
2022-10-01T14:08:25.883Z,100674.31
2022-10-01T14:11:16.370Z,100677.47
2022-10-01T14:14:02.766Z,100681.84
2022-10-01T14:16:34.094Z,100686.88
2022-10-01T14:19:03.891Z,100684.19
2022-10-01T14:21:51.977Z,100698.38
2022-10-01T14:24:52.680Z,100694.44
2022-10-01T14:27:44.169Z,100679.34
2022-10-01T14:30:26.202Z,100703.59
2022-10-01T14:33:17.180Z,100705.34
2022-10-01T14:35:58.580Z,100718.56
2022-10-01T14:38:28.152Z,100710.38
2022-10-01T14:40:57.496Z,100710.75
2022-10-01T14:43:29.320Z,100717.34
2022-10-01T14:46:07.738Z,100724.97
2022-10-01T14:48:40.339Z,100722.16
2022-10-01T14:51:24.967Z,100719.81
2022-10-01T14:53:56.120Z,100726.13
2022-10-01T14:56:26.538Z,100726.31
2022-10-01T14:59:07.250Z,100720.41
2022-10-01T15:01:37.336Z,100728.78
2022-10-01T15:04:17.406Z,100728.00
2022-10-01T15:06:46.765Z,100732.63
2022-10-01T15:09:19.571Z,100735.38
2022-10-01T15:11:54.223Z,100742.47
2022-10-01T15:14:27.100Z,100747.97
2022-10-01T15:16:56.542Z,100754.69
2022-10-01T15:19:26.406Z,100755.28
2022-10-01T15:21:59.093Z,100741.91
2022-10-01T15:24:47.751Z,100752.97
2022-10-01T15:27:20.490Z,100762.13
2022-10-01T15:29:56.503Z,100759.25
2022-10-01T15:32:28.100Z,100772.88
2022-10-01T15:35:00.688Z,100770.78
2022-10-01T15:37:36.478Z,100775.50
2022-10-01T15:40:10.028Z,100782.06
2022-10-01T15:42:40.642Z,100785.00
2022-10-01T15:45:10.468Z,100785.19
2022-10-01T15:47:52.231Z,100791.28
2022-10-01T15:50:32.424Z,100796.44
2022-10-01T15:53:10.599Z,100798.38
2022-10-01T15:55:52.382Z,100809.47
2022-10-01T15:58:31.756Z,100815.19
2022-10-01T16:01:10.777Z,100811.22
2022-10-01T16:03:44.351Z,100806.00
2022-10-01T16:06:23.782Z,100819.50
2022-10-01T16:09:13.265Z,100829.22
2022-10-01T16:11:58.549Z,100823.81
2022-10-01T16:14:30.796Z,100840.03
2022-10-01T16:17:18.836Z,100841.00
2022-10-01T16:19:56.763Z,100836.94
2022-10-01T16:22:37.623Z,100839.97
2022-10-01T16:25:23.294Z,100843.97
2022-10-01T16:27:55.120Z,100866.50
2022-10-01T16:30:27.028Z,100863.31
2022-10-01T16:33:04.458Z,100859.22
2022-10-01T16:35:35.984Z,100860.66
2022-10-01T16:38:08.351Z,100858.66
2022-10-01T16:40:41.003Z,100871.97
2022-10-01T16:43:17.565Z,100874.56
2022-10-01T16:45:47.322Z,100885.22
2022-10-01T16:48:22.388Z,100886.16
2022-10-01T16:50:53.636Z,100884.13
2022-10-01T16:53:24.834Z,100890.16
2022-10-01T16:55:56.018Z,100903.47
2022-10-01T16:58:25.262Z,100909.50
2022-10-01T17:00:54.666Z,100912.66
2022-10-01T17:03:25.034Z,100916.78
2022-10-01T17:05:54.308Z,100937.03
2022-10-01T17:08:23.542Z,100928.47
2022-10-01T17:10:58.640Z,100945.72
2022-10-01T17:13:29.879Z,100941.28
2022-10-01T17:15:59.243Z,100947.91
2022-10-01T17:18:28.604Z,100946.31
2022-10-01T17:20:59.630Z,100963.41
2022-10-01T17:23:28.917Z,100963.25
2022-10-01T17:25:58.283Z,100970.97
2022-10-01T17:28:27.692Z,100970.19
2022-10-01T17:30:57.203Z,100980.94
2022-10-01T17:33:28.405Z,100974.72
2022-10-01T17:35:57.741Z,100974.88
2022-10-01T17:38:27.327Z,100989.72
2022-10-01T17:40:57.016Z,100982.06
2022-10-01T17:43:26.602Z,100997.56
2022-10-01T17:46:00.775Z,101001.03
2022-10-01T17:48:31.472Z,100998.47
2022-10-01T17:51:10.039Z,101011.38
2022-10-01T17:53:42.515Z,101006.88
2022-10-01T17:56:22.366Z,101013.63
2022-10-01T17:58:51.744Z,101015.31
2022-10-01T18:01:22.875Z,101017.16
2022-10-01T18:04:00.211Z,101033.22
2022-10-01T18:06:30.393Z,101038.22
2022-10-01T18:08:59.666Z,101035.66
2022-10-01T18:11:30.942Z,101034.34
2022-10-01T18:14:01.183Z,101034.25
2022-10-01T18:16:32.145Z,101041.09
2022-10-01T18:21:52.431Z,101048.88
2022-10-01T18:24:21.764Z,101059.56
2022-10-01T18:26:51.239Z,101044.59
2022-10-01T18:29:27.071Z,101063.22
2022-10-01T18:32:17.904Z,101066.59
2022-10-01T18:35:08.659Z,101075.13
2022-10-01T18:37:49.088Z,101077.28
2022-10-01T18:40:20.235Z,101074.91
2022-10-01T18:43:03.236Z,101088.06
2022-10-01T18:45:50.493Z,101089.81
2022-10-01T18:48:45.469Z,101087.19
2022-10-01T18:51:42.663Z,101092.53
2022-10-01T18:54:42.844Z,101096.28
2022-10-01T18:57:20.886Z,101102.28
2022-10-01T19:00:21.378Z,101104.00
2022-10-01T19:03:27.736Z,101117.84
2022-10-01T19:06:27.539Z,101116.34
2022-10-01T19:09:06.351Z,101127.72
2022-10-01T19:12:02.424Z,101122.25
2022-10-01T19:14:46.596Z,101115.47
2022-10-01T19:17:43.819Z,101124.97
2022-10-01T19:20:30.259Z,101125.91
2022-10-01T19:23:27.653Z,101132.50
2022-10-01T19:26:10.313Z,101135.00
2022-10-01T19:28:42.923Z,101136.78
2022-10-01T19:31:22.415Z,101132.94
2022-10-01T19:33:58.926Z,101133.13
2022-10-01T19:36:37.142Z,101137.22
2022-10-01T19:39:13.511Z,101140.19
2022-10-01T19:41:54.075Z,101139.13
2022-10-01T19:45:05.273Z,101146.84
2022-10-01T19:47:43.601Z,101145.25
2022-10-01T19:50:25.038Z,101147.28
2022-10-01T19:52:58.255Z,101141.38
2022-10-01T19:55:37.685Z,101155.34
2022-10-01T19:58:20.155Z,101151.50
2022-10-01T20:00:57.278Z,101157.16
2022-10-01T20:03:50.182Z,101162.84
2022-10-01T20:06:27.807Z,101167.72
2022-10-01T20:09:02.912Z,101176.31
2022-10-01T20:11:38.475Z,101164.06
2022-10-01T20:14:48.596Z,101178.34
2022-10-01T20:17:32.767Z,101184.38
2022-10-01T20:20:16.217Z,101192.19
2022-10-01T20:23:11.125Z,101195.94
2022-10-01T20:26:11.307Z,101190.00
2022-10-01T20:28:52.851Z,101202.97
2022-10-01T20:31:32.382Z,101194.31
2022-10-01T20:34:12.408Z,101202.25
2022-10-01T20:36:51.063Z,101199.06
2022-10-01T20:39:26.618Z,101202.81
2022-10-01T20:41:57.500Z,101202.91
2022-10-01T20:44:31.823Z,101203.34
2022-10-01T20:47:27.958Z,101198.56
2022-10-01T20:50:14.820Z,101203.53
2022-10-01T20:52:55.251Z,101202.50
2022-10-01T20:55:31.963Z,101214.88
2022-10-01T20:58:06.533Z,101209.19
2022-10-01T21:00:37.508Z,101215.78
2022-10-01T21:03:32.194Z,101221.44
2022-10-01T21:06:21.155Z,101215.56
2022-10-01T21:09:28.981Z,101223.91
2022-10-01T21:12:07.924Z,101231.63
2022-10-01T21:14:44.403Z,101231.31
2022-10-01T21:17:44.749Z,101234.72
2022-10-01T21:20:32.235Z,101235.59
2022-10-01T21:23:36.310Z,101247.03
2022-10-01T21:26:11.692Z,101244.66
2022-10-01T21:29:05.701Z,101245.88
2022-10-01T21:31:53.892Z,101246.78
2022-10-01T21:35:07.459Z,101261.81
2022-10-01T21:37:43.206Z,101250.16
2022-10-01T21:40:43.986Z,101248.72
2022-10-01T21:43:37.203Z,101263.59
2022-10-01T21:46:18.406Z,101270.84
2022-10-01T21:49:07.324Z,101273.31
2022-10-01T21:52:12.134Z,101268.00
2022-10-01T21:54:56.307Z,101270.03
2022-10-01T21:57:36.094Z,101266.44
2022-10-01T22:00:24.846Z,101277.69
2022-10-01T22:03:04.115Z,101270.84
2022-10-01T22:05:37.378Z,101277.69
2022-10-01T22:08:26.371Z,101278.81
2022-10-01T22:10:59.755Z,101282.09
2022-10-01T22:13:37.733Z,101275.56
2022-10-01T22:16:15.366Z,101286.97
2022-10-01T22:18:52.954Z,101284.56
2022-10-01T22:21:30.917Z,101286.97
2022-10-01T22:24:11.447Z,101275.09
2022-10-01T22:26:47.753Z,101299.16
2022-10-01T22:29:22.051Z,101297.22
2022-10-01T22:31:56.826Z,101300.50
2022-10-01T22:34:35.767Z,101290.75
2022-10-01T22:37:11.652Z,101292.09
2022-10-01T22:39:50.707Z,101296.88
2022-10-01T22:42:30.361Z,101298.91
2022-10-01T22:45:05.327Z,101308.22
2022-10-01T22:47:39.617Z,101298.47
2022-10-01T22:50:39.263Z,101300.97
2022-10-01T22:53:23.230Z,101302.53
2022-10-01T22:55:59.999Z,101308.47
2022-10-01T22:58:51.943Z,101303.63
2022-10-01T23:01:49.237Z,101302.38
2022-10-01T23:04:37.151Z,101307.66
2022-10-01T23:07:14.382Z,101308.03
2022-10-01T23:10:16.353Z,101306.28
2022-10-01T23:13:00.565Z,101303.81
2022-10-01T23:15:44.379Z,101300.69
2022-10-01T23:18:35.247Z,101307.69
2022-10-01T23:21:33.525Z,101311.59
2022-10-01T23:24:09.727Z,101320.09
2022-10-01T23:26:54.158Z,101319.53
2022-10-01T23:29:52.549Z,101307.44
2022-10-01T23:32:51.135Z,101318.72
2022-10-01T23:35:28.001Z,101316.91
2022-10-01T23:38:22.217Z,101313.53
2022-10-01T23:40:54.657Z,101318.34
2022-10-01T23:43:32.731Z,101327.22
2022-10-01T23:46:04.678Z,101323.28
2022-10-01T23:48:42.322Z,101337.47
2022-10-01T23:51:33.675Z,101332.16
2022-10-01T23:54:22.060Z,101342.94
2022-10-01T23:57:19.371Z,101336.41
2022-10-01T23:59:55.179Z,101354.63
